createdAt,value
2019-03-25T00:00:45.505Z,7.90
2019-03-25T00:03:14.664Z,8.68
2019-03-25T00:05:43.804Z,8.35
2019-03-25T00:08:13.084Z,8.40
2019-03-25T00:10:42.534Z,8.35
2019-03-25T00:13:11.387Z,8.65
2019-03-25T00:15:40.503Z,8.80
2019-03-25T00:18:09.625Z,8.15
2019-03-25T00:20:38.512Z,7.37
2019-03-25T00:23:07.327Z,7.20
2019-03-25T00:25:36.224Z,7.10
2019-03-25T00:28:05.405Z,6.85
2019-03-25T00:30:34.344Z,7.45
2019-03-25T00:33:03.184Z,9.75
2019-03-25T00:35:32.424Z,9.38
2019-03-25T00:38:01.604Z,9.75
2019-03-25T00:40:31.044Z,10.45
2019-03-25T00:42:59.929Z,9.15
2019-03-25T00:45:28.824Z,9.20
2019-03-25T00:47:58.083Z,9.08
2019-03-25T00:50:27.865Z,8.80
2019-03-25T00:52:56.984Z,8.33
2019-03-25T00:55:25.784Z,9.25
2019-03-25T00:57:54.504Z,9.03
2019-03-25T01:00:23.410Z,9.05
2019-03-25T01:02:52.324Z,8.15
2019-03-25T01:05:21.204Z,8.75
2019-03-25T01:07:50.204Z,8.28
2019-03-25T01:10:20.132Z,8.13
2019-03-25T01:12:50.564Z,8.80
2019-03-25T01:15:19.424Z,8.80
2019-03-25T01:17:48.383Z,9.20
2019-03-25T01:20:17.310Z,8.75
2019-03-25T01:22:46.268Z,9.45
2019-03-25T01:25:15.183Z,9.03
2019-03-25T01:27:44.989Z,8.78
2019-03-25T01:30:14.105Z,9.07
2019-03-25T01:32:43.586Z,8.63
2019-03-25T01:35:12.584Z,8.80
2019-03-25T01:37:41.792Z,8.23
2019-03-25T01:40:10.884Z,9.53
2019-03-25T01:42:39.905Z,10.43
2019-03-25T01:45:09.047Z,8.70
2019-03-25T01:47:37.903Z,8.15
2019-03-25T01:50:07.405Z,8.50
2019-03-25T01:52:36.345Z,9.35
2019-03-25T01:55:13.401Z,8.90
2019-03-25T01:57:35.664Z,9.05
2019-03-25T02:00:08.724Z,8.88
2019-03-25T02:02:37.784Z,9.55
2019-03-25T02:05:07.230Z,10.72
2019-03-25T02:07:36.783Z,12.37
2019-03-25T02:10:07.224Z,12.30
2019-03-25T02:12:37.205Z,11.38
2019-03-25T02:15:06.865Z,10.55
2019-03-25T02:17:35.807Z,11.07
2019-03-25T02:20:06.104Z,9.95
2019-03-25T02:22:35.222Z,9.75
2019-03-25T02:25:06.124Z,10.45
2019-03-25T02:27:35.386Z,12.43
2019-03-25T02:30:07.366Z,11.55
2019-03-25T02:32:36.824Z,9.73
2019-03-25T02:35:06.944Z,12.37
2019-03-25T02:37:35.964Z,12.80
2019-03-25T02:40:06.051Z,12.75
2019-03-25T02:42:34.846Z,11.50
2019-03-25T02:45:04.244Z,11.70
2019-03-25T02:47:33.466Z,11.63
2019-03-25T02:50:02.446Z,10.65
2019-03-25T02:52:31.487Z,12.65
2019-03-25T02:55:00.657Z,12.50
2019-03-25T02:57:29.869Z,11.35
2019-03-25T02:59:58.787Z,10.82
2019-03-25T03:02:27.671Z,10.78
2019-03-25T03:04:56.963Z,10.45
2019-03-25T03:07:25.856Z,9.88
2019-03-25T03:09:54.670Z,11.05
2019-03-25T03:12:23.484Z,10.40
2019-03-25T03:14:54.388Z,11.30
2019-03-25T03:17:23.266Z,11.78
2019-03-25T03:19:55.134Z,13.35
2019-03-25T03:22:23.425Z,12.98
2019-03-25T03:24:52.745Z,11.97
2019-03-25T03:27:22.076Z,11.55
2019-03-25T03:29:50.946Z,11.85
2019-03-25T03:32:20.174Z,11.45
2019-03-25T03:34:49.165Z,13.55
2019-03-25T03:37:18.386Z,13.03
2019-03-25T03:39:47.485Z,12.65
2019-03-25T03:42:16.372Z,14.90
2019-03-25T03:44:45.226Z,12.90
2019-03-25T03:47:14.066Z,12.82
2019-03-25T03:49:42.866Z,12.47
2019-03-25T03:52:11.946Z,12.03
2019-03-25T03:54:41.265Z,12.88
2019-03-25T03:57:10.186Z,14.93
2019-03-25T03:59:39.270Z,13.43
2019-03-25T04:02:08.225Z,17.12
2019-03-25T04:04:37.825Z,15.70
2019-03-25T04:07:07.229Z,16.67
2019-03-25T04:09:36.206Z,16.75
2019-03-25T04:12:05.184Z,16.30
2019-03-25T04:14:34.065Z,15.45
2019-03-25T04:17:02.921Z,16.50
2019-03-25T04:19:31.857Z,16.77
2019-03-25T04:22:01.147Z,16.35
2019-03-25T04:24:30.346Z,16.60
2019-03-25T04:26:59.168Z,16.80
2019-03-25T04:29:28.545Z,16.32
2019-03-25T04:31:57.767Z,16.87
2019-03-25T04:34:26.776Z,18.48
2019-03-25T04:36:55.625Z,17.07
2019-03-25T04:39:24.675Z,16.10
2019-03-25T04:41:53.724Z,16.52
2019-03-25T04:44:22.745Z,37.80
2019-03-25T04:46:51.863Z,16.97
2019-03-25T04:49:20.724Z,16.73
2019-03-25T04:51:49.484Z,17.07
2019-03-25T04:54:18.404Z,16.52
2019-03-25T04:56:47.211Z,20.48
2019-03-25T04:59:16.124Z,18.00
2019-03-25T05:01:45.025Z,18.42
2019-03-25T05:04:13.804Z,18.67
2019-03-25T05:06:42.884Z,17.90
2019-03-25T05:09:11.784Z,17.62
2019-03-25T05:11:40.564Z,20.02
2019-03-25T05:14:09.844Z,21.07
2019-03-25T05:16:38.765Z,20.27
2019-03-25T05:19:08.553Z,19.30
2019-03-25T05:21:37.727Z,19.52
2019-03-25T05:24:06.707Z,18.37
2019-03-25T05:26:35.407Z,19.57
2019-03-25T05:29:04.269Z,19.50
2019-03-25T05:31:33.784Z,20.72
2019-03-25T05:34:02.680Z,21.20
2019-03-25T05:36:32.344Z,21.85
2019-03-25T05:39:01.265Z,21.73
2019-03-25T05:41:32.006Z,21.35
2019-03-25T05:44:00.764Z,21.55
2019-03-25T05:46:32.866Z,21.40
2019-03-25T05:49:01.705Z,21.05
2019-03-25T05:51:30.663Z,20.00
2019-03-25T05:54:01.064Z,21.17
2019-03-25T05:56:30.287Z,20.82
2019-03-25T05:58:59.147Z,19.05
2019-03-25T06:01:28.967Z,21.68
2019-03-25T06:03:58.105Z,21.15
2019-03-25T06:06:27.531Z,24.20
2019-03-25T06:08:56.744Z,21.50
2019-03-25T06:11:26.165Z,20.75
2019-03-25T06:13:54.944Z,20.70
2019-03-25T06:16:26.845Z,20.27
2019-03-25T06:18:55.965Z,20.80
2019-03-25T06:21:25.127Z,20.75
2019-03-25T06:23:54.152Z,19.50
2019-03-25T06:26:23.044Z,19.07
2019-03-25T06:28:54.985Z,19.65
2019-03-25T06:31:24.344Z,19.82
2019-03-25T06:33:53.626Z,18.27
2019-03-25T06:36:22.403Z,20.25
2019-03-25T06:38:51.264Z,20.88
2019-03-25T06:41:20.126Z,20.60
2019-03-25T06:43:49.007Z,21.55
2019-03-25T06:46:17.764Z,21.77
2019-03-25T06:48:46.752Z,22.15
2019-03-25T06:51:15.904Z,22.13
2019-03-25T06:53:45.024Z,22.30
2019-03-25T06:56:13.890Z,23.27
2019-03-25T06:58:42.955Z,22.73
2019-03-25T07:01:12.245Z,22.73
2019-03-25T07:03:41.047Z,21.93
2019-03-25T07:06:10.044Z,22.17
2019-03-25T07:08:38.955Z,22.10
2019-03-25T07:11:08.005Z,21.05
2019-03-25T07:13:37.084Z,20.23
2019-03-25T07:16:06.085Z,19.37
2019-03-25T07:18:35.945Z,19.92
2019-03-25T07:21:04.844Z,19.20
2019-03-25T07:23:34.147Z,20.00
2019-03-25T07:26:03.004Z,22.27
2019-03-25T07:28:32.265Z,18.98
2019-03-25T07:31:01.268Z,18.80
2019-03-25T07:33:30.244Z,19.98
2019-03-25T07:35:59.684Z,24.98
2019-03-25T07:38:28.908Z,22.82
2019-03-25T07:40:57.884Z,20.30
2019-03-25T07:43:26.785Z,23.90
2019-03-25T07:45:55.964Z,29.57
2019-03-25T07:48:25.468Z,31.45
2019-03-25T07:50:54.604Z,32.15
2019-03-25T07:53:23.864Z,28.70
2019-03-25T07:55:52.974Z,29.95
2019-03-25T07:58:21.906Z,31.07
2019-03-25T08:00:51.165Z,29.60
2019-03-25T08:03:20.257Z,21.80
2019-03-25T08:05:49.664Z,29.45
2019-03-25T08:08:19.215Z,28.67
2019-03-25T08:10:48.752Z,30.68
2019-03-25T08:13:18.510Z,28.87
2019-03-25T08:15:47.728Z,27.00
2019-03-25T08:18:17.224Z,25.32
2019-03-25T08:20:46.453Z,26.40
2019-03-25T08:23:16.424Z,25.92
2019-03-25T08:25:45.393Z,31.68
2019-03-25T08:28:15.064Z,31.10
2019-03-25T08:30:44.411Z,28.43
2019-03-25T08:33:13.265Z,27.05
2019-03-25T08:35:42.744Z,27.80
2019-03-25T08:38:11.965Z,30.70
2019-03-25T08:40:40.984Z,29.92
2019-03-25T08:43:10.285Z,31.30
2019-03-25T08:45:39.404Z,28.67
2019-03-25T08:48:08.685Z,36.08
2019-03-25T08:50:37.826Z,33.02
2019-03-25T08:53:06.966Z,32.85
2019-03-25T08:55:36.264Z,32.65
2019-03-25T08:58:12.005Z,32.25
2019-03-25T09:00:35.645Z,33.63
2019-03-25T09:03:04.648Z,35.08
2019-03-25T09:05:33.465Z,34.23
2019-03-25T09:08:02.431Z,32.50
2019-03-25T09:10:33.043Z,34.10
2019-03-25T09:15:30.024Z,32.95
2019-03-25T09:17:58.925Z,31.85
2019-03-25T09:20:28.305Z,33.30
2019-03-25T09:22:57.565Z,32.05
2019-03-25T09:25:26.845Z,34.03
2019-03-25T09:27:55.724Z,33.58
2019-03-25T09:30:53.365Z,32.50
2019-03-25T09:33:22.524Z,32.73
2019-03-25T09:35:51.754Z,30.92
2019-03-25T09:38:20.824Z,32.85
2019-03-25T09:40:49.945Z,31.05
2019-03-25T09:43:19.485Z,30.75
2019-03-25T09:45:48.907Z,29.85
2019-03-25T09:48:18.007Z,31.57
2019-03-25T09:50:47.485Z,30.35
2019-03-25T09:53:16.824Z,31.85
2019-03-25T09:55:46.125Z,31.23
2019-03-25T09:58:16.644Z,32.48
2019-03-25T10:00:45.685Z,30.75
2019-03-25T10:03:14.644Z,34.10
2019-03-25T10:05:44.226Z,31.68
2019-03-25T10:08:14.004Z,32.48
2019-03-25T10:10:42.845Z,31.20
2019-03-25T10:13:11.805Z,31.00
2019-03-25T10:15:40.804Z,33.38
2019-03-25T10:18:09.946Z,35.30
2019-03-25T10:20:39.924Z,33.00
2019-03-25T10:23:08.984Z,34.60
2019-03-25T10:25:38.404Z,34.53
2019-03-25T10:28:08.065Z,35.60
2019-03-25T10:30:37.124Z,34.20
2019-03-25T10:33:05.964Z,34.43
2019-03-25T10:35:35.104Z,34.85
2019-03-25T10:38:03.964Z,36.33
2019-03-25T10:40:32.864Z,35.98
2019-03-25T10:43:01.691Z,36.15
2019-03-25T10:45:31.524Z,34.33
2019-03-25T10:48:00.704Z,33.60
2019-03-25T10:50:30.084Z,33.13
2019-03-25T10:52:59.384Z,32.73
2019-03-25T10:55:28.279Z,35.75
2019-03-25T10:57:57.506Z,36.00
2019-03-25T11:00:26.480Z,37.03
2019-03-25T11:02:55.695Z,38.98
2019-03-25T11:05:25.143Z,36.93
2019-03-25T11:07:54.264Z,38.28
2019-03-25T11:10:23.363Z,39.78
2019-03-25T11:12:52.844Z,39.53
2019-03-25T11:15:22.543Z,38.98
2019-03-25T11:17:51.910Z,39.83
2019-03-25T11:20:21.303Z,39.03
2019-03-25T11:22:50.247Z,39.55
2019-03-25T11:25:19.364Z,38.67
2019-03-25T11:27:54.345Z,37.40
2019-03-25T11:30:22.464Z,37.35
2019-03-25T11:32:51.525Z,37.95
2019-03-25T11:35:20.324Z,37.75
2019-03-25T11:37:49.123Z,38.40
2019-03-25T11:40:18.204Z,36.85
2019-03-25T11:42:47.364Z,36.68
2019-03-25T11:45:16.524Z,36.17
2019-03-25T11:47:45.944Z,34.78
2019-03-25T11:50:14.967Z,33.38
2019-03-25T11:52:43.931Z,35.73
2019-03-25T11:55:12.984Z,34.88
2019-03-25T11:57:41.844Z,35.95
2019-03-25T12:00:10.603Z,32.53
2019-03-25T12:02:39.483Z,31.85
2019-03-25T12:05:08.506Z,29.67
2019-03-25T12:07:37.624Z,28.50
2019-03-25T12:10:07.570Z,32.75
2019-03-25T12:12:36.645Z,30.92
2019-03-25T12:15:07.344Z,30.57
2019-03-25T12:17:36.704Z,30.62
2019-03-25T12:20:07.123Z,31.87
2019-03-25T12:22:36.265Z,31.02
2019-03-25T12:25:07.865Z,36.65
2019-03-25T12:27:36.666Z,13.08
2019-03-25T12:30:08.890Z,19.05
2019-03-25T12:32:37.706Z,20.08
2019-03-25T12:35:07.587Z,20.12
2019-03-25T12:37:36.924Z,27.50
2019-03-25T12:40:07.918Z,26.10
2019-03-25T12:45:06.625Z,23.05
2019-03-25T12:47:35.485Z,12.47
2019-03-25T12:50:07.107Z,8.85
2019-03-25T12:52:37.126Z,7.05
2019-03-25T12:55:07.846Z,7.40
2019-03-25T13:00:07.069Z,5.65
2019-03-25T13:02:35.944Z,5.67
2019-03-25T13:05:06.264Z,5.53
2019-03-25T13:07:35.085Z,5.95
2019-03-25T13:10:04.824Z,6.30
2019-03-25T13:12:33.964Z,5.70
2019-03-25T13:15:03.266Z,5.00
2019-03-25T13:17:32.364Z,4.15
2019-03-25T13:20:01.104Z,3.98
2019-03-25T13:22:30.423Z,3.52
2019-03-25T13:24:59.504Z,3.45
2019-03-25T13:27:28.987Z,3.70
2019-03-25T13:29:58.105Z,3.35
2019-03-25T13:32:27.104Z,3.00
2019-03-25T13:34:56.024Z,2.62
2019-03-25T13:37:24.885Z,2.75
2019-03-25T13:39:53.672Z,2.30
2019-03-25T13:42:22.744Z,2.17
2019-03-25T13:44:51.604Z,1.98
2019-03-25T13:47:21.125Z,2.02
2019-03-25T13:49:50.104Z,1.65
2019-03-25T13:52:19.226Z,1.70
2019-03-25T13:54:48.025Z,1.32
2019-03-25T13:57:17.025Z,1.45
2019-03-25T13:59:46.206Z,1.45
2019-03-25T14:02:15.265Z,1.30
2019-03-25T14:04:44.724Z,1.10
2019-03-25T14:07:13.844Z,1.20
2019-03-25T14:09:42.585Z,1.00
2019-03-25T14:12:11.367Z,1.47
2019-03-25T14:14:40.333Z,1.25
2019-03-25T14:17:09.084Z,1.22
2019-03-25T14:19:38.425Z,1.20
2019-03-25T14:22:07.412Z,1.10
2019-03-25T14:24:38.286Z,1.30
2019-03-25T14:27:07.704Z,1.40
2019-03-25T14:29:36.984Z,1.70
2019-03-25T14:32:05.785Z,1.70
2019-03-25T14:34:44.361Z,1.82
2019-03-25T14:37:05.705Z,1.72
2019-03-25T14:39:34.744Z,1.47
2019-03-25T14:42:03.584Z,1.40
2019-03-25T14:44:32.347Z,2.10
2019-03-25T14:47:01.384Z,2.00
2019-03-25T14:49:30.265Z,2.02
2019-03-25T14:51:59.788Z,2.30
2019-03-25T14:54:28.924Z,2.50
2019-03-25T14:56:57.724Z,2.67
2019-03-25T14:59:26.765Z,2.20
2019-03-25T15:01:55.805Z,2.25
2019-03-25T15:04:25.144Z,2.40
2019-03-25T15:06:54.424Z,2.35
2019-03-25T15:09:23.285Z,2.02
2019-03-25T15:11:52.024Z,2.00
2019-03-25T15:14:21.124Z,2.47
2019-03-25T15:16:50.265Z,2.15
2019-03-25T15:19:19.944Z,2.25
2019-03-25T15:21:48.825Z,2.40
2019-03-25T15:24:17.944Z,2.72
2019-03-25T15:26:47.005Z,2.40
2019-03-25T15:29:16.345Z,2.40
2019-03-25T15:31:45.245Z,2.45
2019-03-25T15:34:14.079Z,2.60
2019-03-25T15:36:43.524Z,2.40
2019-03-25T15:39:12.444Z,2.90
2019-03-25T15:41:41.444Z,2.90
2019-03-25T15:44:13.507Z,2.80
2019-03-25T15:46:42.530Z,2.67
2019-03-25T15:49:11.789Z,2.80
2019-03-25T15:51:40.526Z,2.90
2019-03-25T15:54:09.308Z,2.90
2019-03-25T15:56:38.126Z,2.55
2019-03-25T15:59:07.645Z,2.40
2019-03-25T16:01:36.449Z,2.25
2019-03-25T16:04:06.046Z,2.62
2019-03-25T16:06:35.084Z,2.52
2019-03-25T16:09:04.464Z,2.50
2019-03-25T16:11:35.626Z,2.52
2019-03-25T16:14:04.964Z,2.50
2019-03-25T16:16:33.744Z,2.50
2019-03-25T16:19:02.405Z,2.10
2019-03-25T16:21:31.144Z,2.37
2019-03-25T16:24:01.434Z,2.27
2019-03-25T16:26:30.344Z,1.92
2019-03-25T16:28:59.184Z,1.98
2019-03-25T16:31:27.904Z,2.02
2019-03-25T16:33:56.727Z,1.90
2019-03-25T16:36:26.904Z,2.05
2019-03-25T16:38:55.844Z,1.87
2019-03-25T16:41:24.604Z,2.20
2019-03-25T16:43:53.806Z,2.20
2019-03-25T16:46:22.624Z,2.30
2019-03-25T16:48:51.570Z,2.12
2019-03-25T16:51:20.329Z,1.95
2019-03-25T16:53:49.246Z,2.10
2019-03-25T16:56:18.534Z,8.33
2019-03-25T16:58:47.584Z,3.00
2019-03-25T17:01:16.424Z,37.05
2019-03-25T17:03:45.865Z,2.33
2019-03-25T17:06:14.764Z,13.10
2019-03-25T17:08:43.684Z,2.45
2019-03-25T17:11:12.572Z,2.40
2019-03-25T17:13:41.624Z,2.50
2019-03-25T17:16:10.904Z,2.90
2019-03-25T17:18:39.744Z,2.30
2019-03-25T17:21:08.824Z,27.13
2019-03-25T17:23:37.804Z,6.55
2019-03-25T17:26:06.786Z,3.98
2019-03-25T17:28:36.185Z,2.50
2019-03-25T17:31:06.100Z,4.20
2019-03-25T17:33:35.847Z,2.70
2019-03-25T17:36:04.565Z,3.20
2019-03-25T17:38:33.665Z,3.60
2019-03-25T17:41:02.424Z,2.10
2019-03-25T17:43:31.504Z,2.40
2019-03-25T17:46:00.424Z,12.80
2019-03-25T17:48:29.644Z,2.70
2019-03-25T17:50:58.364Z,3.08
2019-03-25T17:53:27.246Z,3.10
2019-03-25T17:55:56.057Z,3.50
2019-03-25T17:58:25.349Z,1.95
2019-03-25T18:01:03.646Z,1.82
2019-03-25T18:03:32.644Z,2.20
2019-03-25T18:06:01.511Z,1.95
2019-03-25T18:08:30.845Z,8.73
2019-03-25T18:11:00.185Z,2.20
2019-03-25T18:13:28.870Z,1.72
2019-03-25T18:15:57.828Z,1.32
2019-03-25T18:18:26.971Z,1.00
2019-03-25T18:20:56.328Z,1.15
2019-03-25T18:23:25.748Z,1.02
2019-03-25T18:25:54.627Z,1.00
2019-03-25T18:28:23.466Z,1.12
2019-03-25T18:30:53.006Z,0.95
2019-03-25T18:33:21.947Z,0.90
2019-03-25T18:35:50.773Z,0.75
2019-03-25T18:38:19.644Z,0.80
2019-03-25T18:40:48.524Z,1.00
2019-03-25T18:43:17.443Z,1.00
2019-03-25T18:45:46.584Z,1.00
2019-03-25T18:48:15.750Z,0.95
2019-03-25T18:50:45.233Z,6.87
2019-03-25T18:53:14.006Z,3.08
2019-03-25T18:55:42.960Z,3.83
2019-03-25T18:58:11.865Z,1.00
2019-03-25T19:00:41.083Z,6.55
2019-03-25T19:03:10.670Z,1.20
2019-03-25T19:05:39.839Z,1.10
2019-03-25T19:08:09.166Z,1.07
2019-03-25T19:10:38.144Z,1.00
2019-03-25T19:13:07.119Z,1.00
2019-03-25T19:15:35.989Z,1.42
2019-03-25T19:18:05.114Z,1.30
2019-03-25T19:20:33.928Z,1.00
2019-03-25T19:23:02.928Z,1.00
2019-03-25T19:25:31.948Z,1.00
2019-03-25T19:28:02.260Z,1.30
2019-03-25T19:30:31.309Z,1.10
2019-03-25T19:33:00.098Z,1.30
2019-03-25T19:35:30.152Z,1.30
2019-03-25T19:40:27.572Z,1.20
2019-03-25T19:42:56.675Z,1.10
2019-03-25T19:45:25.677Z,1.30
2019-03-25T19:47:54.512Z,1.20
2019-03-25T19:50:23.684Z,1.00
2019-03-25T19:52:52.484Z,1.07
2019-03-25T19:55:21.190Z,1.30
2019-03-25T19:57:50.405Z,1.00
2019-03-25T20:00:22.265Z,1.20
2019-03-25T20:02:51.073Z,0.98
2019-03-25T20:05:20.224Z,1.10
2019-03-25T20:07:49.475Z,1.20
2019-03-25T20:10:33.176Z,1.20
2019-03-25T20:13:02.621Z,1.15
2019-03-25T20:15:44.964Z,1.32
2019-03-25T20:18:02.146Z,1.30
2019-03-25T20:20:31.105Z,1.07
2019-03-25T20:22:59.913Z,1.12
2019-03-25T20:25:28.871Z,1.50
2019-03-25T20:27:58.284Z,1.27
2019-03-25T20:30:27.228Z,1.25
2019-03-25T20:32:56.163Z,1.12
2019-03-25T20:35:25.206Z,1.30
2019-03-25T20:37:54.048Z,1.30
2019-03-25T20:40:22.688Z,1.27
2019-03-25T20:42:51.869Z,1.40
2019-03-25T20:45:20.620Z,1.20
2019-03-25T20:47:49.537Z,1.30
2019-03-25T20:50:18.378Z,1.10
2019-03-25T20:52:47.344Z,1.20
2019-03-25T20:55:16.281Z,1.22
2019-03-25T20:57:45.166Z,1.30
2019-03-25T21:00:15.592Z,1.10
2019-03-25T21:02:45.514Z,0.90
2019-03-25T21:05:14.885Z,1.25
2019-03-25T21:07:43.859Z,1.00
2019-03-25T21:10:12.766Z,1.42
2019-03-25T21:12:42.366Z,1.20
2019-03-25T21:15:11.396Z,1.17
2019-03-25T21:17:40.240Z,1.40
2019-03-25T21:20:09.089Z,1.30
2019-03-25T21:22:38.009Z,1.27
2019-03-25T21:25:08.583Z,1.40
2019-03-25T21:30:07.675Z,1.27
2019-03-25T21:32:37.192Z,1.20
2019-03-25T21:35:06.923Z,1.30
2019-03-25T21:37:35.826Z,1.43
2019-03-25T21:40:06.884Z,1.60
2019-03-25T21:42:35.550Z,1.60
2019-03-25T21:45:07.034Z,1.47
2019-03-25T21:47:36.395Z,1.45
2019-03-25T21:50:06.507Z,1.52
2019-03-25T21:52:35.649Z,1.50
2019-03-25T21:55:06.283Z,1.55
2019-03-25T22:00:08.398Z,1.55
2019-03-25T22:02:38.304Z,1.55
2019-03-25T22:05:07.756Z,1.47
2019-03-25T22:07:37.006Z,1.20
2019-03-25T22:10:06.604Z,1.50
2019-03-25T22:12:35.844Z,1.10
2019-03-25T22:15:08.404Z,0.98
2019-03-25T22:17:38.244Z,0.80
2019-03-25T22:20:10.267Z,1.00
2019-03-25T22:22:39.865Z,0.90
2019-03-25T22:25:08.825Z,1.00
2019-03-25T22:27:38.064Z,1.00
2019-03-25T22:30:07.564Z,0.80
2019-03-25T22:32:36.505Z,0.90
2019-03-25T22:35:06.906Z,0.90
2019-03-25T22:37:36.325Z,1.00
2019-03-25T22:40:07.704Z,1.05
2019-03-25T22:42:36.624Z,1.05
2019-03-25T22:45:06.845Z,1.00
2019-03-25T22:47:36.668Z,0.70
2019-03-25T22:50:12.107Z,0.93
2019-03-25T22:52:41.088Z,0.88
2019-03-25T22:55:09.984Z,1.10
2019-03-25T22:57:39.524Z,1.05
2019-03-25T23:00:09.247Z,1.00
2019-03-25T23:02:39.646Z,1.00
2019-03-25T23:05:11.288Z,1.10
2019-03-25T23:07:40.355Z,0.80
2019-03-25T23:10:09.889Z,0.93
2019-03-25T23:12:39.064Z,0.90
2019-03-25T23:15:08.425Z,1.10
2019-03-25T23:17:37.644Z,0.80
2019-03-25T23:20:07.664Z,0.93
2019-03-25T23:22:36.595Z,0.80
2019-03-25T23:25:06.924Z,0.93
2019-03-25T23:27:35.904Z,0.90
2019-03-25T23:30:06.104Z,0.88
2019-03-25T23:32:35.164Z,0.68
2019-03-25T23:35:05.545Z,0.70
2019-03-25T23:37:34.691Z,0.65
2019-03-25T23:40:05.824Z,0.50
2019-03-25T23:42:36.184Z,0.60
2019-03-25T23:45:06.928Z,0.57
2019-03-25T23:47:36.024Z,0.60
2019-03-25T23:50:06.745Z,0.50
2019-03-25T23:52:35.904Z,0.60
2019-03-25T23:55:06.363Z,0.60
2019-03-25T23:57:35.243Z,0.45
